createdAt,value
2022-07-25T00:03:52.356Z,20.70
2022-07-25T00:08:59.011Z,20.60
2022-07-25T00:14:16.884Z,20.50
2022-07-25T00:19:19.804Z,20.20
2022-07-25T00:24:26.126Z,20.00
2022-07-25T00:29:28.895Z,19.90
2022-07-25T00:34:31.730Z,19.90
2022-07-25T00:39:35.839Z,19.90
2022-07-25T00:44:40.060Z,19.80
2022-07-25T00:49:42.755Z,19.70
2022-07-25T00:54:47.428Z,19.70
2022-07-25T00:59:50.626Z,19.70
2022-07-25T01:04:54.350Z,19.70
2022-07-25T01:09:59.291Z,19.50
2022-07-25T01:15:02.938Z,19.40
2022-07-25T01:20:06.538Z,19.40
2022-07-25T01:25:11.077Z,19.40
2022-07-25T01:30:16.239Z,19.30
2022-07-25T01:35:19.288Z,19.20
2022-07-25T01:40:25.330Z,19.20
2022-07-25T01:45:28.149Z,19.20
2022-07-25T01:50:30.936Z,19.00
2022-07-25T01:55:35.009Z,18.90
2022-07-25T02:00:37.826Z,18.70
2022-07-25T02:05:40.593Z,18.90
2022-07-25T02:10:44.623Z,18.80
2022-07-25T02:15:47.655Z,18.70
2022-07-25T02:20:50.339Z,18.50
2022-07-25T02:25:54.383Z,18.50
2022-07-25T02:30:57.292Z,18.50
2022-07-25T02:36:00.091Z,18.40
2022-07-25T02:41:04.743Z,18.40
2022-07-25T02:46:07.722Z,18.40
2022-07-25T02:51:10.501Z,18.40
2022-07-25T02:56:14.571Z,18.30
2022-07-25T03:01:17.613Z,18.30
2022-07-25T03:06:20.424Z,18.20
2022-07-25T03:11:24.537Z,18.20
2022-07-25T03:16:27.799Z,18.20
2022-07-25T03:21:30.624Z,18.20
2022-07-25T03:26:34.680Z,18.20
2022-07-25T03:31:37.453Z,18.20
2022-07-25T03:36:40.253Z,18.20
2022-07-25T03:41:44.307Z,18.20
2022-07-25T03:46:47.193Z,18.30
2022-07-25T03:51:49.925Z,18.40
2022-07-25T03:56:54.001Z,18.50
2022-07-25T04:01:57.339Z,18.60
2022-07-25T04:07:00.088Z,18.70
2022-07-25T04:12:04.650Z,18.80
2022-07-25T04:17:07.473Z,18.90
2022-07-25T04:22:11.961Z,19.00
2022-07-25T04:27:16.724Z,19.10
2022-07-25T04:32:23.350Z,19.40
2022-07-25T04:37:26.411Z,19.60
2022-07-25T04:42:30.428Z,20.00
2022-07-25T04:47:33.214Z,20.50
2022-07-25T04:52:37.160Z,20.70
2022-07-25T04:57:42.150Z,21.00
2022-07-25T05:02:45.009Z,21.30
2022-07-25T05:07:47.925Z,21.80
2022-07-25T05:12:51.950Z,22.30
2022-07-25T05:17:54.680Z,22.60
2022-07-25T05:22:57.712Z,22.90
2022-07-25T05:28:02.909Z,23.30
2022-07-25T05:33:05.608Z,23.50
2022-07-25T05:38:08.304Z,23.70
2022-07-25T05:43:12.333Z,24.00
2022-07-25T05:48:15.161Z,24.10
2022-07-25T05:53:17.965Z,24.30
2022-07-25T05:58:26.150Z,24.40
2022-07-25T06:03:34.089Z,24.50
2022-07-25T06:08:37.123Z,24.70
2022-07-25T06:13:41.409Z,25.00
2022-07-25T06:18:53.614Z,25.20
2022-07-25T06:24:06.208Z,25.20
2022-07-25T06:29:24.596Z,25.40
2022-07-25T06:34:31.134Z,25.70
2022-07-25T06:39:49.782Z,25.60
2022-07-25T06:45:00.659Z,25.80
2022-07-25T06:50:11.413Z,25.90
2022-07-25T06:55:22.977Z,26.20
2022-07-25T07:00:40.733Z,26.50
2022-07-25T07:05:52.535Z,26.50
2022-07-25T07:10:58.842Z,26.70
2022-07-25T07:16:08.697Z,27.10
2022-07-25T07:21:21.879Z,27.30
2022-07-25T07:26:31.374Z,27.50
2022-07-25T07:31:47.571Z,27.60
2022-07-25T07:36:53.204Z,27.80
2022-07-25T07:42:13.717Z,27.80
2022-07-25T07:52:51.416Z,28.50
2022-07-25T07:58:10.313Z,28.80
2022-07-25T08:03:30.573Z,28.90
2022-07-25T08:08:44.477Z,29.20
2022-07-25T08:14:22.093Z,29.50
2022-07-25T08:19:34.136Z,29.70
2022-07-25T08:25:01.188Z,30.00
2022-07-25T08:30:35.815Z,30.20
2022-07-25T08:36:14.313Z,30.20
2022-07-25T08:41:48.700Z,30.30
2022-07-25T08:47:09.678Z,30.70
2022-07-25T08:52:27.522Z,31.00
2022-07-25T08:57:58.537Z,31.30
2022-07-25T09:03:20.443Z,31.60
2022-07-25T09:08:29.805Z,32.10
2022-07-25T09:13:50.600Z,34.60
2022-07-25T09:37:50.607Z,37.50
2022-07-25T09:48:36.245Z,39.30
2022-07-25T09:54:00.143Z,41.70
2022-07-25T09:59:12.370Z,42.50
2022-07-25T10:04:25.886Z,44.90
2022-07-25T10:10:12.889Z,43.20
2022-07-25T10:15:38.705Z,44.80
2022-07-25T10:21:24.575Z,46.30
2022-07-25T10:26:40.466Z,46.00
2022-07-25T10:32:23.275Z,46.60
2022-07-25T10:37:57.419Z,44.10
2022-07-25T10:43:17.895Z,45.70
2022-07-25T10:49:08.631Z,45.10
2022-07-25T10:54:45.573Z,43.60
2022-07-25T11:00:26.396Z,43.40
2022-07-25T11:12:36.621Z,44.80
2022-07-25T11:47:45.365Z,43.90
2022-07-25T11:53:18.051Z,43.50
2022-07-25T12:09:41.487Z,43.30
2022-07-25T12:20:25.770Z,45.80
2022-07-25T12:25:31.085Z,45.50
2022-07-25T12:30:35.034Z,46.40
2022-07-25T12:35:40.694Z,45.30
2022-07-25T12:40:43.405Z,46.30
2022-07-25T12:45:46.331Z,45.40
2022-07-25T12:50:50.363Z,45.10
2022-07-25T12:55:53.078Z,47.30
2022-07-25T13:01:00.902Z,48.30
2022-07-25T13:06:07.905Z,48.20
2022-07-25T13:11:10.575Z,46.80
2022-07-25T13:16:13.364Z,45.90
2022-07-25T13:21:18.664Z,47.90
2022-07-25T13:26:21.432Z,47.70
2022-07-25T13:31:24.207Z,47.40
2022-07-25T13:36:28.353Z,47.60
2022-07-25T13:41:31.399Z,47.10
2022-07-25T13:46:35.097Z,47.70
2022-07-25T13:51:39.103Z,46.00
2022-07-25T13:56:42.477Z,45.60
2022-07-25T14:01:46.051Z,44.50
2022-07-25T14:06:52.087Z,44.70
2022-07-25T14:11:54.914Z,45.50
2022-07-25T14:16:58.426Z,45.80
2022-07-25T14:22:02.509Z,45.60
2022-07-25T14:27:05.400Z,46.00
2022-07-25T14:32:08.761Z,45.60
2022-07-25T14:37:13.581Z,42.30
2022-07-25T14:42:16.587Z,42.30
2022-07-25T14:47:19.425Z,42.70
2022-07-25T14:52:23.931Z,44.00
2022-07-25T14:57:26.639Z,44.70
2022-07-25T15:02:29.403Z,42.60
2022-07-25T15:07:33.395Z,42.00
2022-07-25T15:12:36.111Z,43.60
2022-07-25T15:17:39.588Z,44.80
2022-07-25T15:22:43.609Z,43.50
2022-07-25T15:27:46.337Z,40.50
2022-07-25T15:32:49.037Z,39.10
2022-07-25T15:37:53.566Z,38.80
2022-07-25T15:42:56.505Z,38.50
2022-07-25T15:48:00.771Z,38.00
2022-07-25T15:53:05.471Z,37.30
2022-07-25T15:58:09.508Z,37.00
2022-07-25T16:03:13.734Z,37.20
2022-07-25T16:08:18.267Z,37.40
2022-07-25T16:13:20.959Z,37.20
2022-07-25T16:18:24.082Z,36.60
2022-07-25T16:23:28.243Z,36.10
2022-07-25T16:28:31.162Z,36.60
2022-07-25T16:33:34.041Z,37.40
2022-07-25T16:38:38.165Z,38.20
2022-07-25T16:43:40.844Z,38.00
2022-07-25T16:48:43.606Z,38.20
2022-07-25T16:53:47.671Z,36.80
2022-07-25T16:58:50.589Z,37.20
2022-07-25T17:03:54.223Z,37.20
2022-07-25T17:08:59.584Z,36.90
2022-07-25T17:14:04.313Z,37.50
2022-07-25T17:19:07.582Z,36.90
2022-07-25T17:24:11.823Z,35.90
2022-07-25T17:29:14.613Z,35.30
2022-07-25T17:34:17.324Z,35.10
2022-07-25T17:39:21.330Z,35.00
2022-07-25T17:44:24.666Z,34.80
2022-07-25T17:49:27.421Z,34.50
2022-07-25T17:54:31.406Z,34.30
2022-07-25T17:59:35.000Z,34.10
2022-07-25T18:04:37.941Z,33.80
2022-07-25T18:09:42.930Z,33.70
2022-07-25T18:14:45.869Z,33.60
2022-07-25T18:19:48.689Z,33.40
2022-07-25T18:24:52.679Z,33.20
2022-07-25T18:29:55.403Z,32.70
2022-07-25T18:34:58.323Z,32.00
2022-07-25T18:40:02.370Z,31.30
2022-07-25T18:45:06.282Z,30.90
2022-07-25T18:50:10.553Z,30.60
2022-07-25T18:55:14.574Z,30.40
2022-07-25T19:00:17.822Z,30.20
2022-07-25T19:05:21.090Z,30.10
2022-07-25T19:10:25.251Z,29.70
2022-07-25T19:15:28.273Z,29.40
2022-07-25T19:20:31.127Z,29.30
2022-07-25T19:25:36.375Z,29.10
2022-07-25T19:30:39.535Z,28.90
2022-07-25T19:35:43.289Z,28.70
2022-07-25T19:40:47.816Z,28.50
2022-07-25T19:45:50.561Z,28.40
2022-07-25T19:50:53.819Z,28.20
2022-07-25T19:55:58.015Z,28.20
2022-07-25T20:01:00.838Z,28.20
2022-07-25T20:06:08.018Z,28.20
2022-07-25T20:11:12.824Z,28.10
2022-07-25T20:16:15.588Z,27.90
2022-07-25T20:21:18.458Z,27.80
2022-07-25T20:26:22.620Z,27.90
2022-07-25T20:31:25.421Z,27.60
2022-07-25T20:36:28.179Z,27.00
2022-07-25T20:41:32.389Z,27.00
2022-07-25T20:46:36.615Z,27.00
2022-07-25T20:51:40.594Z,26.90
2022-07-25T20:56:44.749Z,26.60
2022-07-25T21:01:48.036Z,26.50
2022-07-25T21:06:50.803Z,26.40
2022-07-25T21:11:55.405Z,26.10
2022-07-25T21:16:58.146Z,25.90
2022-07-25T21:22:00.988Z,25.70
2022-07-25T21:27:05.171Z,25.70
2022-07-25T21:32:08.877Z,25.60
2022-07-25T21:37:11.961Z,25.60
2022-07-25T21:42:16.098Z,25.70
2022-07-25T21:47:18.894Z,25.80
2022-07-25T21:52:29.868Z,25.90
2022-07-25T21:57:38.764Z,25.80
2022-07-25T22:02:42.749Z,25.60
2022-07-25T22:07:45.956Z,25.60
2022-07-25T22:12:50.136Z,25.70
2022-07-25T22:17:52.823Z,25.50
2022-07-25T22:22:55.636Z,25.30
2022-07-25T22:27:59.646Z,25.00
2022-07-25T22:33:02.327Z,24.90
2022-07-25T22:38:05.008Z,24.90
2022-07-25T22:43:09.079Z,25.00
2022-07-25T22:48:11.754Z,25.00
2022-07-25T22:53:14.462Z,25.10
2022-07-25T22:58:18.531Z,25.10
2022-07-25T23:03:21.323Z,25.00
2022-07-25T23:08:24.066Z,24.90
2022-07-25T23:13:28.125Z,24.70
2022-07-25T23:18:30.973Z,24.60
2022-07-25T23:23:33.759Z,24.40
2022-07-25T23:28:37.981Z,24.20
2022-07-25T23:33:40.854Z,24.10
2022-07-25T23:38:43.533Z,24.00
2022-07-25T23:43:56.992Z,23.80
2022-07-25T23:49:01.870Z,23.80
2022-07-25T23:54:04.789Z,23.70
2022-07-25T23:59:09.088Z,23.60
